sensor_id;sensor_type;location;lat;lon;timestamp;pressure;altitude;pressure_sealevel;temperature;humidity
48778;BME280;34578;0.000;0.000;2023-03-20T00:00:56;96902.47;;;16.46;50.70
48778;BME280;34578;0.000;0.000;2023-03-20T00:05:57;96905.81;;;16.45;49.90
48778;BME280;34578;0.000;0.000;2023-03-20T00:10:57;96907.53;;;16.45;50.11
48778;BME280;34578;0.000;0.000;2023-03-20T00:15:58;96904.97;;;16.43;49.97
48778;BME280;34578;0.000;0.000;2023-03-20T00:20:58;96903.31;;;16.45;50.38
48778;BME280;34578;0.000;0.000;2023-03-20T00:25:58;96910.91;;;16.47;49.59
48778;BME280;34578;0.000;0.000;2023-03-20T00:30:59;96910.06;;;16.46;49.84
48778;BME280;34578;0.000;0.000;2023-03-20T00:35:59;96917.63;;;16.46;49.59
48778;BME280;34578;0.000;0.000;2023-03-20T00:40:59;96920.16;;;16.46;49.89
48778;BME280;34578;0.000;0.000;2023-03-20T00:46:01;96904.06;;;16.38;49.89
48778;BME280;34578;0.000;0.000;2023-03-20T00:51:01;96922.84;;;16.58;58.72
48778;BME280;34578;0.000;0.000;2023-03-20T00:56:02;96920.34;;;16.63;59.65
48778;BME280;34578;0.000;0.000;2023-03-20T01:01:03;96918.63;;;16.57;55.10
48778;BME280;34578;0.000;0.000;2023-03-20T01:06:04;96929.50;;;16.53;50.89
48778;BME280;34578;0.000;0.000;2023-03-20T01:11:05;96921.06;;;16.51;50.79
48778;BME280;34578;0.000;0.000;2023-03-20T01:16:10;96920.22;;;16.49;50.61
48778;BME280;34578;0.000;0.000;2023-03-20T01:21:17;96917.69;;;16.49;50.47
48778;BME280;34578;0.000;0.000;2023-03-20T01:26:41;96927.75;;;16.48;49.95
48778;BME280;34578;0.000;0.000;2023-03-20T01:31:42;96913.44;;;16.47;49.78
48778;BME280;34578;0.000;0.000;2023-03-20T01:36:49;96927.75;;;16.46;50.08
48778;BME280;34578;0.000;0.000;2023-03-20T01:41:50;96925.19;;;16.43;49.93
48778;BME280;34578;0.000;0.000;2023-03-20T01:46:52;96926.06;;;16.44;49.90
48778;BME280;34578;0.000;0.000;2023-03-20T01:51:55;96935.31;;;16.45;49.92
48778;BME280;34578;0.000;0.000;2023-03-20T01:57:01;96927.75;;;16.46;49.85
48778;BME280;34578;0.000;0.000;2023-03-20T02:02:04;96916.81;;;16.47;49.34
48778;BME280;34578;0.000;0.000;2023-03-20T02:07:07;96920.16;;;16.46;51.99
48778;BME280;34578;0.000;0.000;2023-03-20T02:12:14;96932.09;;;16.59;58.23
48778;BME280;34578;0.000;0.000;2023-03-20T02:17:15;96930.44;;;16.61;59.31
48778;BME280;34578;0.000;0.000;2023-03-20T02:22:43;96935.44;;;16.57;52.37
48778;BME280;34578;0.000;0.000;2023-03-20T02:33:35;96935.38;;;16.49;50.59
48778;BME280;34578;0.000;0.000;2023-03-20T02:39:00;96941.25;;;16.50;50.19
48778;BME280;34578;0.000;0.000;2023-03-20T02:44:09;96943.81;;;16.51;50.18
48778;BME280;34578;0.000;0.000;2023-03-20T02:50:02;96945.47;;;16.51;50.19
48778;BME280;34578;0.000;0.000;2023-03-20T03:00:14;96952.22;;;16.47;49.52
48778;BME280;34578;0.000;0.000;2023-03-20T03:05:23;96951.31;;;16.44;49.64
48778;BME280;34578;0.000;0.000;2023-03-20T03:10:29;96965.63;;;16.46;50.05
48778;BME280;34578;0.000;0.000;2023-03-20T03:15:37;96952.16;;;16.44;49.67
48778;BME280;34578;0.000;0.000;2023-03-20T03:20:39;96955.59;;;16.49;50.12
48778;BME280;34578;0.000;0.000;2023-03-20T03:25:40;96953.03;;;16.48;50.84
48778;BME280;34578;0.000;0.000;2023-03-20T03:30:42;96973.41;;;16.60;59.24
48778;BME280;34578;0.000;0.000;2023-03-20T03:35:45;96975.09;;;16.62;58.87
48778;BME280;34578;0.000;0.000;2023-03-20T03:41:03;96981.81;;;16.60;53.29
48778;BME280;34578;0.000;0.000;2023-03-20T03:46:17;96970.78;;;16.52;50.60
48778;BME280;34578;0.000;0.000;2023-03-20T03:51:24;96990.16;;;16.52;50.54
48778;BME280;34578;0.000;0.000;2023-03-20T03:56:40;96981.69;;;16.50;49.84
48778;BME280;34578;0.000;0.000;2023-03-20T04:01:42;96982.53;;;16.47;50.47
48778;BME280;34578;0.000;0.000;2023-03-20T04:06:43;96978.38;;;16.54;50.65
48778;BME280;34578;0.000;0.000;2023-03-20T04:11:49;96975.06;;;16.56;50.24
48778;BME280;34578;0.000;0.000;2023-03-20T04:16:50;96970.00;;;16.56;50.26
48778;BME280;34578;0.000;0.000;2023-03-20T04:21:50;96968.28;;;16.55;50.02
48778;BME280;34578;0.000;0.000;2023-03-20T04:26:51;96968.28;;;16.54;50.50
48778;BME280;34578;0.000;0.000;2023-03-20T04:31:52;96960.69;;;16.55;50.10
48778;BME280;34578;0.000;0.000;2023-03-20T04:37:11;96965.81;;;16.58;50.31
48778;BME280;34578;0.000;0.000;2023-03-20T04:42:23;96970.84;;;16.58;50.38
48778;BME280;34578;0.000;0.000;2023-03-20T04:47:29;96975.97;;;16.63;56.00
48778;BME280;34578;0.000;0.000;2023-03-20T04:52:30;96984.38;;;16.63;58.82
48778;BME280;34578;0.000;0.000;2023-03-20T04:57:30;96991.16;;;16.66;58.26
48778;BME280;34578;0.000;0.000;2023-03-20T05:02:34;96992.00;;;16.66;52.43
48778;BME280;34578;0.000;0.000;2023-03-20T05:07:34;97000.44;;;16.67;52.86
48778;BME280;34578;0.000;0.000;2023-03-20T05:12:39;96994.56;;;16.69;52.20
48778;BME280;34578;0.000;0.000;2023-03-20T05:17:56;96979.41;;;16.69;53.16
48778;BME280;34578;0.000;0.000;2023-03-20T05:23:23;96973.50;;;16.70;52.37
48778;BME280;34578;0.000;0.000;2023-03-20T05:28:28;96992.09;;;16.72;52.90
48778;BME280;34578;0.000;0.000;2023-03-20T05:33:58;96984.34;;;16.60;52.98
48778;BME280;34578;0.000;0.000;2023-03-20T05:39:15;97001.38;;;16.73;52.50
48778;BME280;34578;0.000;0.000;2023-03-20T05:44:37;97003.00;;;16.71;51.09
48778;BME280;34578;0.000;0.000;2023-03-20T05:49:47;97008.91;;;16.70;51.01
48778;BME280;34578;0.000;0.000;2023-03-20T05:55:06;97013.06;;;16.65;51.12
48778;BME280;34578;0.000;0.000;2023-03-20T06:00:34;97019.81;;;16.66;51.28
48778;BME280;34578;0.000;0.000;2023-03-20T06:05:55;97021.50;;;16.64;53.08
48778;BME280;34578;0.000;0.000;2023-03-20T06:10:55;97014.03;;;16.76;56.72
48778;BME280;34578;0.000;0.000;2023-03-20T06:15:56;97014.88;;;16.78;57.15
48778;BME280;34578;0.000;0.000;2023-03-20T06:20:57;97017.28;;;16.67;52.69
48778;BME280;34578;0.000;0.000;2023-03-20T06:26:02;97019.19;;;16.20;53.86
48778;BME280;34578;0.000;0.000;2023-03-20T06:31:06;97016.72;;;16.24;53.44
48778;BME280;34578;0.000;0.000;2023-03-20T06:36:09;97021.19;;;16.42;54.79
48778;BME280;34578;0.000;0.000;2023-03-20T06:41:09;97027.16;;;16.47;54.06
48778;BME280;34578;0.000;0.000;2023-03-20T06:46:12;97039.84;;;16.51;52.63
48778;BME280;34578;0.000;0.000;2023-03-20T06:51:12;97038.19;;;16.53;52.03
48778;BME280;34578;0.000;0.000;2023-03-20T06:56:22;97039.00;;;16.52;51.17
48778;BME280;34578;0.000;0.000;2023-03-20T07:01:23;97029.75;;;16.51;50.62
48778;BME280;34578;0.000;0.000;2023-03-20T07:06:23;97037.28;;;16.50;50.64
48778;BME280;34578;0.000;0.000;2023-03-20T07:11:25;97055.00;;;16.51;50.70
48778;BME280;34578;0.000;0.000;2023-03-20T07:16:27;97047.44;;;16.51;50.16
48778;BME280;34578;0.000;0.000;2023-03-20T07:21:28;97046.56;;;16.51;50.18
48778;BME280;34578;0.000;0.000;2023-03-20T07:26:29;97060.16;;;16.57;57.21
48778;BME280;34578;0.000;0.000;2023-03-20T07:31:30;97069.47;;;16.60;57.68
48778;BME280;34578;0.000;0.000;2023-03-20T07:36:44;97074.53;;;16.63;57.02
48778;BME280;34578;0.000;0.000;2023-03-20T07:41:46;97080.31;;;16.54;52.29
48778;BME280;34578;0.000;0.000;2023-03-20T07:46:58;97092.13;;;16.55;50.76
48778;BME280;34578;0.000;0.000;2023-03-20T07:51:58;97095.44;;;16.51;50.57
48778;BME280;34578;0.000;0.000;2023-03-20T07:56:59;97088.69;;;16.50;50.66
48778;BME280;34578;0.000;0.000;2023-03-20T08:02:00;97078.41;;;16.38;50.16
48778;BME280;34578;0.000;0.000;2023-03-20T08:07:00;97087.78;;;16.45;50.41
48778;BME280;34578;0.000;0.000;2023-03-20T08:12:00;97084.41;;;16.46;50.20
48778;BME280;34578;0.000;0.000;2023-03-20T08:17:01;97080.19;;;16.45;50.08
48778;BME280;34578;0.000;0.000;2023-03-20T08:22:01;97090.31;;;16.45;50.19
48778;BME280;34578;0.000;0.000;2023-03-20T08:27:02;97089.47;;;16.45;50.23
48778;BME280;34578;0.000;0.000;2023-03-20T08:32:02;97090.31;;;16.44;49.71
48778;BME280;34578;0.000;0.000;2023-03-20T08:37:03;97087.75;;;16.42;49.67
48778;BME280;34578;0.000;0.000;2023-03-20T08:42:05;97085.22;;;16.42;49.67
48778;BME280;34578;0.000;0.000;2023-03-20T08:47:05;97083.72;;;16.55;57.86
48778;BME280;34578;0.000;0.000;2023-03-20T08:52:07;97082.09;;;16.61;58.08
48778;BME280;34578;0.000;0.000;2023-03-20T08:57:07;97073.69;;;16.62;57.56
48778;BME280;34578;0.000;0.000;2023-03-20T09:02:09;97071.88;;;16.52;52.59
48778;BME280;34578;0.000;0.000;2023-03-20T09:07:10;97071.78;;;16.46;51.01
48778;BME280;34578;0.000;0.000;2023-03-20T09:12:11;97079.38;;;16.45;50.59
48778;BME280;34578;0.000;0.000;2023-03-20T09:17:11;97070.88;;;16.43;50.17
48778;BME280;34578;0.000;0.000;2023-03-20T09:22:13;97067.53;;;16.42;50.44
48778;BME280;34578;0.000;0.000;2023-03-20T09:27:14;97088.56;;;16.41;50.24
48778;BME280;34578;0.000;0.000;2023-03-20T09:32:15;97090.28;;;16.42;49.96
48778;BME280;34578;0.000;0.000;2023-03-20T09:37:15;97086.88;;;16.40;49.73
48778;BME280;34578;0.000;0.000;2023-03-20T09:48:14;97096.09;;;16.37;49.58
48778;BME280;34578;0.000;0.000;2023-03-20T09:58:30;97091.03;;;16.37;49.49
48778;BME280;34578;0.000;0.000;2023-03-20T10:03:42;97091.09;;;16.41;52.22
48778;BME280;34578;0.000;0.000;2023-03-20T10:08:44;97085.44;;;16.57;56.41
48778;BME280;34578;0.000;0.000;2023-03-20T10:19:44;97087.13;;;16.58;54.68
48778;BME280;34578;0.000;0.000;2023-03-20T10:35:20;97079.19;;;16.34;50.34
48778;BME280;34578;0.000;0.000;2023-03-20T10:40:26;97098.63;;;16.38;50.11
48778;BME280;34578;0.000;0.000;2023-03-20T10:45:30;97106.19;;;16.37;50.22
48778;BME280;34578;0.000;0.000;2023-03-20T10:50:36;97117.13;;;16.37;50.06
48778;BME280;34578;0.000;0.000;2023-03-20T10:55:42;97107.03;;;16.37;50.08
48778;BME280;34578;0.000;0.000;2023-03-20T11:00:43;97103.59;;;16.35;49.83
48778;BME280;34578;0.000;0.000;2023-03-20T11:05:43;97096.88;;;16.34;49.79
48778;BME280;34578;0.000;0.000;2023-03-20T11:10:44;97097.72;;;16.35;49.14
48778;BME280;34578;0.000;0.000;2023-03-20T11:15:45;97096.88;;;16.34;49.69
48778;BME280;34578;0.000;0.000;2023-03-20T11:20:56;97090.97;;;16.35;50.04
48778;BME280;34578;0.000;0.000;2023-03-20T11:25:59;97078.63;;;16.52;54.20
48778;BME280;34578;0.000;0.000;2023-03-20T11:36:19;97087.22;;;16.64;55.37
48778;BME280;34578;0.000;0.000;2023-03-20T11:41:26;97084.56;;;16.57;50.47
48778;BME280;34578;0.000;0.000;2023-03-20T11:46:27;97078.63;;;16.53;50.84
48778;BME280;34578;0.000;0.000;2023-03-20T11:51:27;97074.38;;;16.51;51.79
48778;BME280;34578;0.000;0.000;2023-03-20T11:56:32;97073.53;;;16.50;50.20
48778;BME280;34578;0.000;0.000;2023-03-20T12:01:42;97066.81;;;16.52;49.86
48778;BME280;34578;0.000;0.000;2023-03-20T12:06:51;97064.31;;;16.54;49.76
48778;BME280;34578;0.000;0.000;2023-03-20T12:11:57;97066.03;;;16.56;49.98
48778;BME280;34578;0.000;0.000;2023-03-20T12:22:29;97054.28;;;16.58;49.71
48778;BME280;34578;0.000;0.000;2023-03-20T12:27:35;97052.56;;;16.57;49.85
48778;BME280;34578;0.000;0.000;2023-03-20T12:32:50;97039.91;;;16.56;49.74
48778;BME280;34578;0.000;0.000;2023-03-20T12:37:53;97039.88;;;16.54;49.77
48778;BME280;34578;0.000;0.000;2023-03-20T12:43:03;97032.28;;;16.54;50.10
48778;BME280;34578;0.000;0.000;2023-03-20T12:59:08;97012.25;;;16.69;52.73
48778;BME280;34578;0.000;0.000;2023-03-20T13:20:24;96999.41;;;16.51;49.93
48778;BME280;34578;0.000;0.000;2023-03-20T13:25:49;96979.16;;;16.48;50.04
48778;BME280;34578;0.000;0.000;2023-03-20T13:30:57;96975.75;;;16.46;49.58
48778;BME280;34578;0.000;0.000;2023-03-20T13:36:14;96967.31;;;16.44;49.67
48778;BME280;34578;0.000;0.000;2023-03-20T13:41:17;96963.94;;;16.45;49.47
48778;BME280;34578;0.000;0.000;2023-03-20T13:46:21;96969.88;;;16.46;49.51
48778;BME280;34578;0.000;0.000;2023-03-20T13:51:28;96969.84;;;16.44;49.35
48778;BME280;34578;0.000;0.000;2023-03-20T14:07:37;96971.78;;;16.66;55.55
48778;BME280;34578;0.000;0.000;2023-03-20T14:12:38;96962.63;;;16.74;56.25
48778;BME280;34578;0.000;0.000;2023-03-20T14:17:42;96963.34;;;16.64;52.80
48778;BME280;34578;0.000;0.000;2023-03-20T14:22:44;96964.09;;;16.57;50.45
48778;BME280;34578;0.000;0.000;2023-03-20T14:38:37;96959.84;;;16.52;49.79
48778;BME280;34578;0.000;0.000;2023-03-20T14:48:54;96953.91;;;16.51;49.77
48778;BME280;34578;0.000;0.000;2023-03-20T14:53:56;96950.53;;;16.49;50.59
48778;BME280;34578;0.000;0.000;2023-03-20T14:59:05;96950.47;;;16.43;49.51
48778;BME280;34578;0.000;0.000;2023-03-20T15:04:09;96953.84;;;16.45;48.62
48778;BME280;34578;0.000;0.000;2023-03-20T15:09:14;96946.28;;;16.47;48.41
48778;BME280;34578;0.000;0.000;2023-03-20T15:14:20;96940.34;;;16.43;48.39
48778;BME280;34578;0.000;0.000;2023-03-20T15:19:21;96933.63;;;16.45;49.11
48778;BME280;34578;0.000;0.000;2023-03-20T15:24:24;96935.50;;;16.61;52.12
48778;BME280;34578;0.000;0.000;2023-03-20T15:29:25;96933.06;;;16.70;52.99
48778;BME280;34578;0.000;0.000;2023-03-20T15:34:30;96937.25;;;16.65;50.27
48778;BME280;34578;0.000;0.000;2023-03-20T15:39:41;96942.22;;;16.59;49.38
48778;BME280;34578;0.000;0.000;2023-03-20T15:44:44;96940.44;;;16.49;48.30
48778;BME280;34578;0.000;0.000;2023-03-20T15:54:53;96922.78;;;16.54;49.46
48778;BME280;34578;0.000;0.000;2023-03-20T15:59:54;96921.94;;;16.53;49.68
48778;BME280;34578;0.000;0.000;2023-03-20T16:04:55;96913.47;;;16.48;49.91
48778;BME280;34578;0.000;0.000;2023-03-20T16:09:59;96917.72;;;16.52;50.09
48778;BME280;34578;0.000;0.000;2023-03-20T16:15:00;96913.50;;;16.54;51.62
48778;BME280;34578;0.000;0.000;2023-03-20T16:20:01;96908.50;;;16.57;51.37
48778;BME280;34578;0.000;0.000;2023-03-20T16:25:02;96886.63;;;16.59;52.49
48778;BME280;34578;0.000;0.000;2023-03-20T16:30:13;96895.22;;;16.76;52.93
48778;BME280;34578;0.000;0.000;2023-03-20T16:35:18;96899.53;;;16.87;53.31
48778;BME280;34578;0.000;0.000;2023-03-20T16:45:24;96890.22;;;16.85;51.18
48778;BME280;34578;0.000;0.000;2023-03-20T16:50:33;96890.22;;;16.82;49.97
48778;BME280;34578;0.000;0.000;2023-03-20T16:55:36;96902.13;;;16.95;50.15
48778;BME280;34578;0.000;0.000;2023-03-20T17:01:02;96893.75;;;17.05;50.56
48778;BME280;34578;0.000;0.000;2023-03-20T17:06:06;96903.06;;;17.04;50.68
48778;BME280;34578;0.000;0.000;2023-03-20T17:11:18;96899.72;;;17.10;51.59
48778;BME280;34578;0.000;0.000;2023-03-20T17:16:21;96900.66;;;17.21;52.57
48778;BME280;34578;0.000;0.000;2023-03-20T17:21:21;96897.31;;;17.26;53.09
48778;BME280;34578;0.000;0.000;2023-03-20T17:26:22;96897.38;;;17.31;53.39
48778;BME280;34578;0.000;0.000;2023-03-20T17:31:23;96888.94;;;17.35;53.73
48778;BME280;34578;0.000;0.000;2023-03-20T17:36:26;96894.06;;;17.38;53.79
48778;BME280;34578;0.000;0.000;2023-03-20T17:41:27;96899.97;;;17.37;53.84
48778;BME280;34578;0.000;0.000;2023-03-20T17:46:29;96898.28;;;17.37;52.96
48778;BME280;34578;0.000;0.000;2023-03-20T17:51:30;96888.25;;;17.48;53.15
48778;BME280;34578;0.000;0.000;2023-03-20T17:56:32;96895.81;;;17.45;53.36
48778;BME280;34578;0.000;0.000;2023-03-20T18:01:32;96894.22;;;17.56;52.67
48778;BME280;34578;0.000;0.000;2023-03-20T18:06:33;96898.41;;;17.52;53.13
48778;BME280;34578;0.000;0.000;2023-03-20T18:11:33;96926.13;;;17.39;53.29
48778;BME280;34578;0.000;0.000;2023-03-20T18:16:34;96918.44;;;17.31;53.86
48778;BME280;34578;0.000;0.000;2023-03-20T18:21:34;96924.31;;;17.26;53.90
48778;BME280;34578;0.000;0.000;2023-03-20T18:26:34;96927.63;;;17.22;53.97
48778;BME280;34578;0.000;0.000;2023-03-20T18:31:35;96939.44;;;17.20;53.92
48778;BME280;34578;0.000;0.000;2023-03-20T18:36:35;96940.25;;;17.16;54.25
48778;BME280;34578;0.000;0.000;2023-03-20T18:41:35;96940.25;;;17.17;54.22
48778;BME280;34578;0.000;0.000;2023-03-20T18:46:36;96936.88;;;17.14;53.98
48778;BME280;34578;0.000;0.000;2023-03-20T18:51:36;96952.91;;;17.16;54.21
48778;BME280;34578;0.000;0.000;2023-03-20T18:56:37;96951.22;;;17.18;53.90
48778;BME280;34578;0.000;0.000;2023-03-20T19:01:37;96942.78;;;17.16;53.95
48778;BME280;34578;0.000;0.000;2023-03-20T19:06:37;96943.59;;;17.12;54.01
48778;BME280;34578;0.000;0.000;2023-03-20T19:11:38;96941.03;;;17.09;54.00
48778;BME280;34578;0.000;0.000;2023-03-20T19:16:38;96937.66;;;17.10;54.13
48778;BME280;34578;0.000;0.000;2023-03-20T19:21:40;96929.25;;;17.11;54.05
48778;BME280;34578;0.000;0.000;2023-03-20T19:26:41;96930.06;;;17.08;53.53
48778;BME280;34578;0.000;0.000;2023-03-20T19:31:41;96930.00;;;17.04;53.66
48778;BME280;34578;0.000;0.000;2023-03-20T19:36:43;96928.31;;;17.00;53.41
48778;BME280;34578;0.000;0.000;2023-03-20T19:41:47;96918.16;;;16.97;53.41
48778;BME280;34578;0.000;0.000;2023-03-20T19:46:49;96924.09;;;16.99;53.35
48778;BME280;34578;0.000;0.000;2023-03-20T19:51:50;96913.09;;;16.98;53.67
48778;BME280;34578;0.000;0.000;2023-03-20T19:56:50;96924.97;;;17.05;53.03
48778;BME280;34578;0.000;0.000;2023-03-20T20:01:50;96923.28;;;17.04;53.11
48778;BME280;34578;0.000;0.000;2023-03-20T20:06:53;96928.34;;;17.04;53.45
48778;BME280;34578;0.000;0.000;2023-03-20T20:11:53;96927.50;;;17.04;53.21
48778;BME280;34578;0.000;0.000;2023-03-20T20:16:53;96925.81;;;17.01;52.69
48778;BME280;34578;0.000;0.000;2023-03-20T20:21:54;96918.19;;;17.00;54.09
48778;BME280;34578;0.000;0.000;2023-03-20T20:26:55;96920.75;;;17.03;53.32
48778;BME280;34578;0.000;0.000;2023-03-20T20:31:55;96907.28;;;17.05;56.04
48778;BME280;34578;0.000;0.000;2023-03-20T20:36:57;96910.69;;;17.09;56.66
48778;BME280;34578;0.000;0.000;2023-03-20T20:41:58;96906.47;;;17.11;54.04
48778;BME280;34578;0.000;0.000;2023-03-20T20:46:58;96919.09;;;17.08;54.50
48778;BME280;34578;0.000;0.000;2023-03-20T20:51:58;96916.56;;;17.06;53.13
48778;BME280;34578;0.000;0.000;2023-03-20T20:57:00;96918.22;;;17.04;52.98
48778;BME280;34578;0.000;0.000;2023-03-20T21:02:00;96920.75;;;17.03;52.84
48778;BME280;34578;0.000;0.000;2023-03-20T21:07:01;96918.22;;;17.03;54.99
48778;BME280;34578;0.000;0.000;2023-03-20T21:12:01;96922.41;;;17.01;55.23
48778;BME280;34578;0.000;0.000;2023-03-20T21:17:03;96930.78;;;16.97;54.82
48778;BME280;34578;0.000;0.000;2023-03-20T21:22:06;96931.66;;;16.97;55.22
48778;BME280;34578;0.000;0.000;2023-03-20T21:27:11;96919.03;;;16.99;54.90
48778;BME280;34578;0.000;0.000;2023-03-20T21:32:15;96913.97;;;16.99;54.92
48778;BME280;34578;0.000;0.000;2023-03-20T21:37:17;96909.72;;;16.96;55.05
48778;BME280;34578;0.000;0.000;2023-03-20T21:42:18;96913.97;;;16.99;56.34
48778;BME280;34578;0.000;0.000;2023-03-20T21:47:19;96923.25;;;17.00;57.90
48778;BME280;34578;0.000;0.000;2023-03-20T21:52:20;96922.41;;;17.01;58.54
48778;BME280;34578;0.000;0.000;2023-03-20T21:57:21;96928.25;;;16.97;57.45
48778;BME280;34578;0.000;0.000;2023-03-20T22:02:22;96918.97;;;16.93;57.51
48778;BME280;34578;0.000;0.000;2023-03-20T22:07:23;96917.28;;;16.92;57.76
48778;BME280;34578;0.000;0.000;2023-03-20T22:12:24;96908.84;;;16.90;58.36
48778;BME280;34578;0.000;0.000;2023-03-20T22:17:24;96898.69;;;16.88;57.51
48778;BME280;34578;0.000;0.000;2023-03-20T22:22:26;96900.38;;;16.88;57.53
48778;BME280;34578;0.000;0.000;2023-03-20T22:27:26;96897.84;;;16.89;56.82
48778;BME280;34578;0.000;0.000;2023-03-20T22:32:27;96897.88;;;16.91;53.90
48778;BME280;34578;0.000;0.000;2023-03-20T22:37:27;96893.69;;;16.93;56.55
48778;BME280;34578;0.000;0.000;2023-03-20T22:42:28;96886.06;;;16.91;58.32
48778;BME280;34578;0.000;0.000;2023-03-20T22:47:28;96880.13;;;16.88;57.97
48778;BME280;34578;0.000;0.000;2023-03-20T22:52:29;96876.75;;;16.86;57.88
48778;BME280;34578;0.000;0.000;2023-03-20T22:57:30;96880.97;;;16.85;57.92
48778;BME280;34578;0.000;0.000;2023-03-20T23:02:30;96873.44;;;16.90;58.42
48778;BME280;34578;0.000;0.000;2023-03-20T23:07:31;96880.19;;;16.94;58.12
48778;BME280;34578;0.000;0.000;2023-03-20T23:12:31;96872.56;;;16.86;58.05
48778;BME280;34578;0.000;0.000;2023-03-20T23:17:32;96860.69;;;16.82;57.04
48778;BME280;34578;0.000;0.000;2023-03-20T23:22:32;96860.72;;;16.84;57.42
48778;BME280;34578;0.000;0.000;2023-03-20T23:27:32;96861.56;;;16.83;56.99
48778;BME280;34578;0.000;0.000;2023-03-20T23:32:37;96865.78;;;16.84;57.39
48778;BME280;34578;0.000;0.000;2023-03-20T23:37:38;96858.19;;;16.84;56.95
48778;BME280;34578;0.000;0.000;2023-03-20T23:42:38;96837.06;;;16.76;56.80
48778;BME280;34578;0.000;0.000;2023-03-20T23:47:39;96841.31;;;16.81;56.64
48778;BME280;34578;0.000;0.000;2023-03-20T23:52:39;96840.50;;;16.81;56.45
48778;BME280;34578;0.000;0.000;2023-03-20T23:57:40;96832.00;;;16.76;56.44
